createdAt,value
2022-12-19T00:00:05.447Z,-0.60
2022-12-19T00:02:39.596Z,-0.60
2022-12-19T00:05:07.330Z,-0.50
2022-12-19T00:07:34.480Z,-0.50
2022-12-19T00:10:01.539Z,-0.50
2022-12-19T00:12:28.655Z,-0.50
2022-12-19T00:14:55.739Z,-0.50
2022-12-19T00:17:25.518Z,-0.40
2022-12-19T00:19:52.516Z,-0.40
2022-12-19T00:22:19.660Z,-0.40
2022-12-19T00:24:48.031Z,-0.40
2022-12-19T00:27:15.185Z,-0.40
2022-12-19T00:29:42.226Z,-0.40
2022-12-19T00:32:09.522Z,-0.40
2022-12-19T00:34:42.127Z,-0.40
2022-12-19T00:37:09.305Z,-0.50
2022-12-19T00:39:36.477Z,-0.60
2022-12-19T00:42:03.605Z,-0.60
2022-12-19T00:44:30.799Z,-0.70
2022-12-19T00:46:59.147Z,-0.70
2022-12-19T00:49:26.381Z,-0.70
2022-12-19T00:51:53.613Z,-0.70
2022-12-19T00:54:20.873Z,-0.70
2022-12-19T00:56:48.025Z,-0.70
2022-12-19T00:59:15.316Z,-0.70
2022-12-19T01:01:45.519Z,-0.60
2022-12-19T01:04:32.666Z,-0.70
2022-12-19T01:07:03.248Z,-0.60
2022-12-19T01:09:33.438Z,-0.70
2022-12-19T01:12:21.011Z,-0.70
2022-12-19T01:14:54.702Z,-0.70
2022-12-19T01:17:26.118Z,-0.70
2022-12-19T01:19:53.501Z,-0.70
2022-12-19T01:22:21.092Z,-0.80
2022-12-19T01:24:48.150Z,-0.80
2022-12-19T01:27:15.817Z,-0.80
2022-12-19T01:29:52.008Z,-0.80
2022-12-19T01:32:20.871Z,-0.90
2022-12-19T01:34:47.995Z,-0.90
2022-12-19T01:37:18.758Z,-0.80
2022-12-19T01:39:46.570Z,-0.80
2022-12-19T01:42:23.394Z,-0.90
2022-12-19T01:45:13.858Z,-0.90
2022-12-19T01:47:55.345Z,-0.90
2022-12-19T01:50:29.589Z,-0.90
2022-12-19T01:52:58.319Z,-0.90
2022-12-19T01:55:26.304Z,-0.90
2022-12-19T01:57:56.446Z,-0.80
2022-12-19T02:00:23.619Z,-0.70
2022-12-19T02:03:05.402Z,-0.80
2022-12-19T02:05:34.765Z,-0.80
2022-12-19T02:08:02.988Z,-0.80
2022-12-19T02:10:30.257Z,-0.80
2022-12-19T02:12:57.630Z,-0.80
2022-12-19T02:15:29.296Z,-0.80
2022-12-19T02:18:03.728Z,-0.90
2022-12-19T02:20:38.496Z,-0.80
2022-12-19T02:23:32.982Z,-0.80
2022-12-19T02:26:20.062Z,-0.80
2022-12-19T02:28:54.925Z,-0.80
2022-12-19T02:31:34.659Z,-0.90
2022-12-19T02:34:25.791Z,-1.00
2022-12-19T02:37:05.104Z,-1.00
2022-12-19T02:39:39.629Z,-0.90
2022-12-19T02:42:10.143Z,-0.90
2022-12-19T02:44:45.690Z,-1.00
2022-12-19T02:47:14.174Z,-0.90
2022-12-19T02:49:42.650Z,-0.90
2022-12-19T02:52:13.342Z,-0.90
2022-12-19T02:54:43.561Z,-0.90
2022-12-19T02:57:24.354Z,-0.90
2022-12-19T03:00:03.794Z,-0.90
2022-12-19T03:02:44.014Z,-0.90
2022-12-19T03:05:26.565Z,-0.90
2022-12-19T03:07:56.017Z,-1.00
2022-12-19T03:10:37.117Z,-1.00
2022-12-19T03:13:27.455Z,-1.00
2022-12-19T03:15:54.771Z,-1.10
2022-12-19T03:18:22.208Z,-1.00
2022-12-19T03:21:12.528Z,-1.10
2022-12-19T03:23:40.805Z,-1.10
2022-12-19T03:26:12.518Z,-1.20
2022-12-19T03:28:45.817Z,-1.20
2022-12-19T03:31:15.144Z,-1.30
2022-12-19T03:33:43.252Z,-1.20
2022-12-19T03:36:16.116Z,-1.20
2022-12-19T03:38:45.713Z,-1.10
2022-12-19T03:41:16.373Z,-1.10
2022-12-19T03:43:45.907Z,-1.10
2022-12-19T03:46:20.202Z,-1.10
2022-12-19T03:48:54.324Z,-1.10
2022-12-19T03:51:48.684Z,-1.20
2022-12-19T03:54:22.140Z,-1.20
2022-12-19T03:56:51.120Z,-1.20
2022-12-19T03:59:31.580Z,-1.30
2022-12-19T04:01:59.419Z,-1.30
2022-12-19T04:04:28.741Z,-1.30
2022-12-19T04:06:56.765Z,-1.30
2022-12-19T04:09:24.772Z,-1.30
2022-12-19T04:11:55.279Z,-1.30
2022-12-19T04:14:30.063Z,-1.40
2022-12-19T04:17:10.439Z,-1.40
2022-12-19T04:19:45.023Z,-1.40
2022-12-19T04:22:22.628Z,-1.40
2022-12-19T04:24:51.979Z,-1.40
2022-12-19T04:27:20.911Z,-1.30
2022-12-19T04:29:51.760Z,-1.30
2022-12-19T04:32:19.918Z,-1.30
2022-12-19T04:34:47.025Z,-1.30
2022-12-19T04:37:14.171Z,-1.30
2022-12-19T04:39:41.443Z,-1.40
2022-12-19T04:42:08.528Z,-1.40
2022-12-19T04:44:35.645Z,-1.40
2022-12-19T04:47:02.869Z,-1.40
2022-12-19T04:49:30.085Z,-1.50
2022-12-19T04:51:57.388Z,-1.50
2022-12-19T04:54:24.378Z,-1.50
2022-12-19T04:56:53.192Z,-1.50
2022-12-19T04:59:20.379Z,-1.50
2022-12-19T05:01:47.733Z,-1.50
2022-12-19T05:04:14.797Z,-1.60
2022-12-19T05:06:42.073Z,-1.60
2022-12-19T05:09:11.757Z,-1.60
2022-12-19T05:11:38.854Z,-1.70
2022-12-19T05:14:06.124Z,-1.60
2022-12-19T05:16:33.755Z,-1.60
2022-12-19T05:19:01.684Z,-1.70
2022-12-19T05:21:28.965Z,-1.80
2022-12-19T05:23:56.609Z,-1.80
2022-12-19T05:26:23.713Z,-1.90
2022-12-19T05:28:50.822Z,-2.00
2022-12-19T05:31:20.509Z,-2.00
2022-12-19T05:33:49.064Z,-2.10
2022-12-19T05:36:18.195Z,-2.10
2022-12-19T05:38:45.339Z,-2.10
2022-12-19T05:41:15.243Z,-2.20
2022-12-19T05:43:44.178Z,-2.20
2022-12-19T05:46:12.114Z,-2.20
2022-12-19T05:48:39.377Z,-2.20
2022-12-19T05:51:06.733Z,-2.30
2022-12-19T05:53:36.838Z,-2.30
2022-12-19T05:56:08.646Z,-2.40
2022-12-19T05:58:37.158Z,-2.40
2022-12-19T06:01:07.454Z,-2.40
2022-12-19T06:03:35.394Z,-2.30
2022-12-19T06:06:05.042Z,-2.30
2022-12-19T06:08:32.558Z,-2.30
2022-12-19T06:11:00.917Z,-2.30
2022-12-19T06:13:29.135Z,-2.40
2022-12-19T06:16:01.394Z,-2.40
2022-12-19T06:18:29.188Z,-2.40
2022-12-19T06:21:06.397Z,-2.40
2022-12-19T06:23:35.985Z,-2.40
2022-12-19T06:26:06.102Z,-2.30
2022-12-19T06:28:34.698Z,-2.30
2022-12-19T06:31:04.780Z,-2.30
2022-12-19T06:33:32.779Z,-2.30
2022-12-19T06:36:06.710Z,-2.30
2022-12-19T06:38:35.295Z,-2.40
2022-12-19T06:41:23.856Z,-2.40
2022-12-19T06:43:53.543Z,-2.40
2022-12-19T06:46:21.177Z,-2.40
2022-12-19T06:48:48.469Z,-2.40
2022-12-19T06:51:15.774Z,-2.40
2022-12-19T06:53:42.884Z,-2.40
2022-12-19T06:56:11.967Z,-2.40
2022-12-19T06:58:39.341Z,-2.40
2022-12-19T07:01:06.858Z,-2.50
2022-12-19T07:03:40.685Z,-2.50
2022-12-19T07:06:08.247Z,-2.50
2022-12-19T07:08:35.729Z,-2.50
2022-12-19T07:11:03.114Z,-2.50
2022-12-19T07:13:30.630Z,-2.50
2022-12-19T07:16:01.426Z,-2.40
2022-12-19T07:18:34.324Z,-2.40
2022-12-19T07:21:02.303Z,-2.30
2022-12-19T07:23:30.129Z,-2.30
2022-12-19T07:25:58.264Z,-2.30
2022-12-19T07:28:25.537Z,-2.30
2022-12-19T07:30:52.887Z,-2.20
2022-12-19T07:33:21.963Z,-2.20
2022-12-19T07:35:49.443Z,-2.10
2022-12-19T07:38:16.737Z,-2.10
2022-12-19T07:40:44.097Z,-2.00
2022-12-19T07:43:11.117Z,-2.00
2022-12-19T07:45:39.498Z,-2.00
2022-12-19T07:48:07.921Z,-1.90
2022-12-19T07:50:34.985Z,-1.90
2022-12-19T07:53:02.327Z,-1.80
2022-12-19T07:55:29.889Z,-1.80
2022-12-19T07:57:56.990Z,-1.90
2022-12-19T08:00:24.565Z,-1.80
2022-12-19T08:02:51.927Z,-1.80
2022-12-19T08:05:19.385Z,-1.80
2022-12-19T08:07:46.516Z,-1.70
2022-12-19T08:10:15.111Z,-1.80
2022-12-19T08:12:42.498Z,-1.80
2022-12-19T08:15:11.252Z,-1.70
2022-12-19T08:17:39.780Z,-1.60
2022-12-19T08:20:09.115Z,-1.50
2022-12-19T08:22:36.185Z,-1.50
2022-12-19T08:25:03.543Z,-1.40
2022-12-19T08:27:30.722Z,-1.30
2022-12-19T08:29:57.958Z,-1.30
2022-12-19T08:32:25.078Z,-1.40
2022-12-19T08:34:52.592Z,-1.30
2022-12-19T08:37:19.901Z,-1.30
2022-12-19T08:39:46.984Z,-1.30
2022-12-19T08:42:14.452Z,-1.50
2022-12-19T08:44:41.682Z,-1.60
2022-12-19T08:47:09.749Z,-1.60
2022-12-19T08:49:36.897Z,-1.80
2022-12-19T08:52:04.367Z,-1.80
2022-12-19T08:54:31.761Z,-1.80
2022-12-19T08:56:59.342Z,-1.80
2022-12-19T08:59:30.965Z,-1.80
2022-12-19T09:02:01.297Z,-1.90
2022-12-19T09:05:48.200Z,-1.80
2022-12-19T09:07:17.278Z,-1.90
2022-12-19T09:09:45.081Z,-1.80
2022-12-19T09:12:14.453Z,-1.80
2022-12-19T09:14:41.723Z,-1.80
2022-12-19T09:17:09.603Z,-1.80
2022-12-19T09:19:36.915Z,-1.90
2022-12-19T09:22:05.083Z,-1.80
2022-12-19T09:24:32.480Z,-1.80
2022-12-19T09:26:59.931Z,-1.90
2022-12-19T09:29:32.194Z,-1.90
2022-12-19T09:32:02.441Z,-1.80
2022-12-19T09:34:37.871Z,-1.70
2022-12-19T09:37:08.474Z,-1.70
2022-12-19T09:39:36.658Z,-1.70
2022-12-19T09:42:13.687Z,-1.60
2022-12-19T09:45:00.889Z,-1.50
2022-12-19T09:47:31.401Z,-1.50
2022-12-19T09:50:00.463Z,-1.50
2022-12-19T09:52:27.808Z,-1.40
2022-12-19T09:55:19.687Z,-1.30
2022-12-19T09:57:59.343Z,-1.30
2022-12-19T10:00:35.227Z,-1.30
2022-12-19T10:03:05.697Z,-1.30
2022-12-19T10:06:52.533Z,-1.20
2022-12-19T10:09:15.797Z,-1.10
2022-12-19T10:12:38.646Z,-1.10
2022-12-19T10:14:57.915Z,-1.00
2022-12-19T10:17:32.488Z,-1.00
2022-12-19T10:20:19.693Z,-0.90
2022-12-19T10:23:26.593Z,-0.90
2022-12-19T10:26:03.374Z,-1.00
2022-12-19T10:28:51.647Z,-0.90
2022-12-19T10:31:24.634Z,-0.90
2022-12-19T10:33:58.520Z,-1.00
2022-12-19T10:36:55.995Z,-1.00
2022-12-19T10:39:38.352Z,-0.90
2022-12-19T10:42:15.983Z,-0.90
2022-12-19T10:44:45.158Z,-0.90
2022-12-19T10:47:16.600Z,-0.90
2022-12-19T10:49:43.776Z,-0.80
2022-12-19T10:52:12.535Z,-0.70
2022-12-19T10:54:41.927Z,-0.70
2022-12-19T10:57:27.055Z,-0.70
2022-12-19T11:00:06.064Z,-0.70
2022-12-19T11:02:39.867Z,-0.70
2022-12-19T11:05:24.328Z,-0.80
2022-12-19T11:08:07.095Z,-0.80
2022-12-19T11:12:26.351Z,-0.80
2022-12-19T11:19:24.133Z,-0.70
2022-12-19T11:20:55.455Z,-0.60
2022-12-19T11:29:26.119Z,-0.50
2022-12-19T11:29:42.225Z,-0.70
2022-12-19T11:29:45.690Z,-0.60
2022-12-19T11:30:48.371Z,-0.60
2022-12-19T11:33:28.899Z,-0.70
2022-12-19T11:35:59.125Z,-0.60
2022-12-19T11:38:48.737Z,-0.50
2022-12-19T11:41:22.454Z,-0.50
2022-12-19T11:43:50.026Z,-0.50
2022-12-19T11:46:45.223Z,-0.60
2022-12-19T11:49:23.332Z,-0.60
2022-12-19T11:52:00.988Z,-0.50
2022-12-19T11:54:32.304Z,-0.40
2022-12-19T11:57:00.204Z,-0.30
2022-12-19T11:59:34.935Z,-0.20
2022-12-19T12:02:37.743Z,-0.20
2022-12-19T12:05:25.924Z,-0.30
2022-12-19T12:10:17.845Z,-0.20
2022-12-19T12:15:25.478Z,-0.20
2022-12-19T12:23:05.514Z,-0.10
2022-12-19T12:31:09.000Z,0.10
2022-12-19T12:31:29.754Z,0.00
2022-12-19T12:31:39.617Z,-0.20
2022-12-19T12:31:42.784Z,-0.10
2022-12-19T12:31:53.470Z,-0.30
2022-12-19T12:35:51.345Z,-0.30
2022-12-19T12:39:14.549Z,-0.40
2022-12-19T12:42:25.815Z,-0.50
2022-12-19T12:44:57.277Z,-0.50
2022-12-19T12:47:27.134Z,-0.60
2022-12-19T12:50:03.047Z,-0.50
2022-12-19T12:52:44.830Z,-0.50
2022-12-19T12:55:34.249Z,-0.50
2022-12-19T12:58:01.444Z,-0.40
2022-12-19T13:00:31.563Z,-0.40
2022-12-19T13:03:18.986Z,-0.40
2022-12-19T13:05:46.401Z,-0.40
2022-12-19T13:08:34.694Z,-0.40
2022-12-19T13:11:06.565Z,-0.50
2022-12-19T13:13:55.037Z,-0.50
2022-12-19T13:16:48.725Z,-0.50
2022-12-19T13:19:34.427Z,-0.60
2022-12-19T13:22:05.284Z,-0.70
2022-12-19T13:24:53.265Z,-0.60
2022-12-19T13:27:20.425Z,-0.60
2022-12-19T13:30:01.618Z,-0.60
2022-12-19T13:32:44.911Z,-0.60
2022-12-19T13:36:49.340Z,-0.70
2022-12-19T13:39:56.638Z,-0.70
2022-12-19T13:41:47.855Z,-0.70
2022-12-19T13:44:19.846Z,-0.70
2022-12-19T13:46:47.574Z,-0.60
2022-12-19T13:49:23.542Z,-0.60
2022-12-19T13:51:57.142Z,-0.70
2022-12-19T13:54:32.264Z,-0.70
2022-12-19T13:57:03.045Z,-0.70
2022-12-19T13:59:40.059Z,-0.70
2022-12-19T14:02:18.160Z,-0.70
2022-12-19T14:04:46.099Z,-0.70
2022-12-19T14:07:43.238Z,-0.70
2022-12-19T14:11:33.190Z,-0.60
2022-12-19T14:13:52.869Z,-0.60
2022-12-19T14:16:44.004Z,-0.60
2022-12-19T14:19:19.940Z,-0.60
2022-12-19T14:22:09.947Z,-0.70
2022-12-19T14:24:34.651Z,-0.70
2022-12-19T14:28:17.439Z,-0.70
2022-12-19T14:30:28.283Z,-0.70
2022-12-19T14:33:45.283Z,-0.70
2022-12-19T14:36:08.790Z,-0.70
2022-12-19T14:39:24.341Z,-0.80
2022-12-19T14:41:48.945Z,-0.70
2022-12-19T14:52:34.730Z,-0.70
2022-12-19T14:53:34.272Z,-0.80
2022-12-19T14:54:15.829Z,-0.90
2022-12-19T14:54:32.221Z,-0.80
2022-12-19T14:59:01.765Z,-0.90
2022-12-19T15:01:33.149Z,-0.90
2022-12-19T15:04:51.191Z,-0.80
2022-12-19T15:07:06.945Z,-0.80
2022-12-19T15:10:58.188Z,-0.90
2022-12-19T15:14:04.155Z,-0.90
2022-12-19T15:16:04.908Z,-0.90
2022-12-19T15:18:33.303Z,-0.80
2022-12-19T15:21:04.137Z,-0.80
2022-12-19T15:23:32.233Z,-0.80
2022-12-19T15:26:05.612Z,-0.90
2022-12-19T15:28:42.123Z,-0.90
2022-12-19T15:31:33.148Z,-0.80
2022-12-19T15:36:49.598Z,-1.00
2022-12-19T15:39:17.693Z,-1.00
2022-12-19T15:41:47.714Z,-1.00
2022-12-19T15:44:20.612Z,-1.00
2022-12-19T15:46:49.362Z,-1.00
2022-12-19T15:49:18.787Z,-1.00
2022-12-19T15:51:46.975Z,-1.00
2022-12-19T15:57:01.444Z,-1.00
2022-12-19T15:59:37.548Z,-1.00
2022-12-19T16:02:16.658Z,-1.00
2022-12-19T16:04:45.481Z,-1.10
2022-12-19T16:07:16.750Z,-1.00
2022-12-19T16:09:44.106Z,-1.00
2022-12-19T16:12:19.304Z,-1.00
2022-12-19T16:14:49.343Z,-1.10
2022-12-19T16:17:21.396Z,-1.10
2022-12-19T16:19:48.807Z,-1.10
2022-12-19T16:22:19.755Z,-1.10
2022-12-19T16:24:47.498Z,-1.10
2022-12-19T16:27:32.532Z,-1.10
2022-12-19T16:30:07.539Z,-1.10
2022-12-19T16:32:35.157Z,-1.10
2022-12-19T16:35:02.451Z,-1.10
2022-12-19T16:37:32.427Z,-1.10
2022-12-19T16:39:59.659Z,-1.10
2022-12-19T16:42:28.374Z,-1.10
2022-12-19T16:44:55.569Z,-1.20
2022-12-19T16:47:23.233Z,-1.20
2022-12-19T16:49:50.410Z,-1.20
2022-12-19T16:52:17.887Z,-1.20
2022-12-19T16:54:45.109Z,-1.20
2022-12-19T16:57:21.255Z,-1.20
2022-12-19T16:59:49.935Z,-1.20
2022-12-19T17:02:36.870Z,-1.20
2022-12-19T17:05:05.015Z,-1.30
2022-12-19T17:07:32.461Z,-1.20
2022-12-19T17:09:59.795Z,-1.20
2022-12-19T17:12:27.903Z,-1.20
2022-12-19T17:14:55.115Z,-1.30
2022-12-19T17:17:22.402Z,-1.30
2022-12-19T17:19:49.557Z,-1.30
2022-12-19T17:22:18.839Z,-1.30
2022-12-19T17:24:46.892Z,-1.40
2022-12-19T17:27:14.364Z,-1.40
2022-12-19T17:29:41.408Z,-1.40
2022-12-19T17:32:11.329Z,-1.40
2022-12-19T17:34:38.467Z,-1.40
2022-12-19T17:37:05.904Z,-1.40
2022-12-19T17:39:34.841Z,-1.40
2022-12-19T17:42:13.903Z,-1.40
2022-12-19T17:44:41.006Z,-1.40
2022-12-19T17:47:11.507Z,-1.40
2022-12-19T17:49:39.222Z,-1.40
2022-12-19T17:52:13.696Z,-1.40
2022-12-19T17:54:41.007Z,-1.40
2022-12-19T17:57:14.334Z,-1.40
2022-12-19T17:59:42.411Z,-1.40
2022-12-19T18:02:20.392Z,-1.40
2022-12-19T18:04:47.784Z,-1.40
2022-12-19T18:07:17.069Z,-1.40
2022-12-19T18:09:44.923Z,-1.40
2022-12-19T18:12:12.179Z,-1.40
2022-12-19T18:14:39.276Z,-1.40
2022-12-19T18:17:06.658Z,-1.40
2022-12-19T18:19:35.092Z,-1.50
2022-12-19T18:22:02.381Z,-1.50
2022-12-19T18:24:29.872Z,-1.50
2022-12-19T18:26:57.233Z,-1.50
2022-12-19T18:29:25.935Z,-1.50
2022-12-19T18:31:54.486Z,-1.50
2022-12-19T18:34:25.046Z,-1.50
2022-12-19T18:36:53.364Z,-1.40
2022-12-19T18:39:23.168Z,-1.40
2022-12-19T18:41:51.747Z,-1.40
2022-12-19T18:44:19.388Z,-1.40
2022-12-19T18:46:49.999Z,-1.40
2022-12-19T18:49:17.715Z,-1.40
2022-12-19T18:51:44.976Z,-1.40
2022-12-19T18:54:17.944Z,-1.30
2022-12-19T18:56:45.532Z,-1.40
2022-12-19T18:59:12.872Z,-1.30
2022-12-19T19:01:43.783Z,-1.30
2022-12-19T19:04:13.472Z,-1.30
2022-12-19T19:06:46.694Z,-1.30
2022-12-19T19:09:18.579Z,-1.30
2022-12-19T19:12:06.181Z,-1.30
2022-12-19T19:14:33.511Z,-1.20
2022-12-19T19:17:00.838Z,-1.20
2022-12-19T19:19:28.307Z,-1.20
2022-12-19T19:21:55.575Z,-1.20
2022-12-19T19:24:23.432Z,-1.30
2022-12-19T19:26:50.575Z,-1.30
2022-12-19T19:29:19.847Z,-1.30
2022-12-19T19:31:49.457Z,-1.30
2022-12-19T19:34:27.063Z,-1.30
2022-12-19T19:36:56.304Z,-1.30
2022-12-19T19:39:24.978Z,-1.30
2022-12-19T19:41:52.460Z,-1.30
2022-12-19T19:44:19.856Z,-1.30
2022-12-19T19:46:47.069Z,-1.30
2022-12-19T19:49:14.562Z,-1.20
2022-12-19T19:51:41.689Z,-1.20
2022-12-19T19:54:09.259Z,-1.20
2022-12-19T19:56:36.483Z,-1.20
2022-12-19T19:59:03.927Z,-1.20
2022-12-19T20:01:31.167Z,-1.20
2022-12-19T20:03:58.281Z,-1.10
2022-12-19T20:06:25.729Z,-1.10
2022-12-19T20:08:53.014Z,-1.10
2022-12-19T20:11:20.874Z,-1.10
2022-12-19T20:13:48.138Z,-1.10
2022-12-19T20:16:18.833Z,-1.10
2022-12-19T20:18:50.682Z,-1.10
2022-12-19T20:21:20.579Z,-1.20
2022-12-19T20:23:48.419Z,-1.20
2022-12-19T20:26:16.613Z,-1.20
2022-12-19T20:28:48.954Z,-1.20
2022-12-19T20:31:22.543Z,-1.20
2022-12-19T20:33:50.716Z,-1.20
2022-12-19T20:36:18.293Z,-1.20
2022-12-19T20:38:46.135Z,-1.20
2022-12-19T20:41:14.189Z,-1.10
2022-12-19T20:43:41.517Z,-1.20
2022-12-19T20:46:14.068Z,-1.10
2022-12-19T20:48:42.200Z,-1.10
2022-12-19T20:51:10.225Z,-1.10
2022-12-19T20:53:38.903Z,-1.10
2022-12-19T20:56:07.536Z,-1.10
2022-12-19T20:58:36.857Z,-1.10
2022-12-19T21:01:07.337Z,-1.10
2022-12-19T21:03:35.979Z,-1.10
2022-12-19T21:06:03.766Z,-1.10
2022-12-19T21:08:33.406Z,-1.00
2022-12-19T21:11:02.331Z,-1.00
2022-12-19T21:13:29.771Z,-1.00
2022-12-19T21:15:58.889Z,-1.00
2022-12-19T21:18:26.917Z,-1.00
2022-12-19T21:20:54.702Z,-1.00
2022-12-19T21:23:23.074Z,-1.00
2022-12-19T21:25:50.863Z,-1.00
2022-12-19T21:28:18.444Z,-1.00
2022-12-19T21:30:45.812Z,-1.00
2022-12-19T21:33:13.234Z,-1.00
2022-12-19T21:35:40.551Z,-1.00
2022-12-19T21:38:07.643Z,-1.00
2022-12-19T21:40:36.825Z,-1.00
2022-12-19T21:43:11.483Z,-1.00
2022-12-19T21:45:39.842Z,-1.00
2022-12-19T21:48:07.018Z,-1.00
2022-12-19T21:50:34.228Z,-1.00
2022-12-19T21:53:01.504Z,-1.00
2022-12-19T21:55:28.646Z,-1.00
2022-12-19T21:57:55.957Z,-1.00
2022-12-19T22:00:23.216Z,-1.00
2022-12-19T22:03:12.702Z,-0.90
2022-12-19T22:05:37.607Z,-0.90
2022-12-19T22:08:05.102Z,-0.90
2022-12-19T22:10:32.213Z,-0.90
2022-12-19T22:12:59.525Z,-1.00
2022-12-19T22:15:26.535Z,-1.00
2022-12-19T22:17:53.736Z,-1.00
2022-12-19T22:20:20.747Z,-0.90
2022-12-19T22:22:47.768Z,-1.00
2022-12-19T22:25:15.588Z,-1.00
2022-12-19T22:27:42.584Z,-1.00
2022-12-19T22:30:11.261Z,-1.00
2022-12-19T22:32:38.748Z,-1.00
2022-12-19T22:35:06.455Z,-1.00
2022-12-19T22:37:33.668Z,-1.00
2022-12-19T22:40:04.226Z,-1.00
2022-12-19T22:42:31.291Z,-1.00
2022-12-19T22:44:58.511Z,-1.00
2022-12-19T22:47:25.544Z,-1.00
2022-12-19T22:49:52.939Z,-1.00
2022-12-19T22:52:20.044Z,-1.00
2022-12-19T22:54:47.057Z,-0.90
2022-12-19T22:57:14.120Z,-0.90
2022-12-19T22:59:42.225Z,-0.90
2022-12-19T23:02:09.712Z,-0.90
2022-12-19T23:04:36.936Z,-0.90
2022-12-19T23:07:04.052Z,-0.90
2022-12-19T23:09:31.154Z,-0.90
2022-12-19T23:11:58.173Z,-0.90
2022-12-19T23:14:25.239Z,-0.90
2022-12-19T23:16:52.339Z,-0.90
2022-12-19T23:19:19.469Z,-0.90
2022-12-19T23:21:46.822Z,-0.90
2022-12-19T23:24:14.028Z,-0.90
2022-12-19T23:26:41.895Z,-0.80
2022-12-19T23:29:11.838Z,-0.90
2022-12-19T23:31:42.095Z,-0.90
2022-12-19T23:34:10.630Z,-0.90
2022-12-19T23:37:10.233Z,-0.80
2022-12-19T23:39:25.396Z,-0.90
2022-12-19T23:41:52.449Z,-0.90
2022-12-19T23:44:19.701Z,-0.80
2022-12-19T23:46:46.740Z,-0.80
2022-12-19T23:49:13.809Z,-0.90
2022-12-19T23:51:40.791Z,-0.90
2022-12-19T23:54:08.944Z,-0.90
2022-12-19T23:56:36.422Z,-0.80
2022-12-19T23:59:03.730Z,-0.80
